New York, New York
Traffic Map
Current Weather Conditions
New York, New York
Clear
Clear
84°
Feels Like: 84°
Wind Chill: 84° Ceiling: Unl
Heat Index: 84° Visibility: 10mi
Dew Point: 60° Wind: 5mph
Humidity: 44% Direction: ° ()
Pressure: 29.99in Gusts: 0mph
Raw Report DataKNYC 161651Z AUTO VRB04KT 10SM CLR 29/16 A2999 RMK AO2 SLP144 T02890156
Traffic Incident Summary
Active as of:
Severity:
Category:
InformationThere was an issue retrieving the traffic information for this location. Please try a different location or try again shortly.
Advertisements